sensor_id;sensor_type;location;lat;lon;timestamp;P1;durP1;ratioP1;P2;durP2;ratioP2
59038;SDS011;44824;43.376;19.630;2023-02-04T00:00:07;64.60;;;47.05;;
59038;SDS011;44824;43.376;19.630;2023-02-04T00:02:35;58.38;;;42.70;;
59038;SDS011;44824;43.376;19.630;2023-02-04T00:05:02;59.38;;;41.10;;
59038;SDS011;44824;43.376;19.630;2023-02-04T00:07:28;54.20;;;39.05;;
59038;SDS011;44824;43.376;19.630;2023-02-04T00:09:54;54.78;;;39.80;;
59038;SDS011;44824;43.376;19.630;2023-02-04T00:12:20;73.35;;;48.40;;
59038;SDS011;44824;43.376;19.630;2023-02-04T00:14:47;54.08;;;41.38;;
59038;SDS011;44824;43.376;19.630;2023-02-04T00:17:31;50.65;;;36.75;;
59038;SDS011;44824;43.376;19.630;2023-02-04T00:19:57;59.92;;;42.38;;
59038;SDS011;44824;43.376;19.630;2023-02-04T00:22:23;61.35;;;42.83;;
59038;SDS011;44824;43.376;19.630;2023-02-04T00:24:52;55.85;;;40.10;;
59038;SDS011;44824;43.376;19.630;2023-02-04T00:27:18;55.90;;;38.80;;
59038;SDS011;44824;43.376;19.630;2023-02-04T00:29:44;45.65;;;31.27;;
59038;SDS011;44824;43.376;19.630;2023-02-04T00:35:07;37.33;;;25.63;;
59038;SDS011;44824;43.376;19.630;2023-02-04T00:37:33;32.85;;;22.98;;
59038;SDS011;44824;43.376;19.630;2023-02-04T00:39:59;41.28;;;28.27;;
59038;SDS011;44824;43.376;19.630;2023-02-04T00:42:26;42.67;;;28.13;;
59038;SDS011;44824;43.376;19.630;2023-02-04T00:44:52;40.38;;;28.25;;
59038;SDS011;44824;43.376;19.630;2023-02-04T00:47:18;41.53;;;29.50;;
59038;SDS011;44824;43.376;19.630;2023-02-04T00:49:44;42.08;;;28.67;;
59038;SDS011;44824;43.376;19.630;2023-02-04T00:52:10;39.20;;;27.40;;
59038;SDS011;44824;43.376;19.630;2023-02-04T00:54:36;38.50;;;26.63;;
59038;SDS011;44824;43.376;19.630;2023-02-04T00:57:02;35.85;;;23.83;;
59038;SDS011;44824;43.376;19.630;2023-02-04T00:59:29;39.45;;;25.73;;
59038;SDS011;44824;43.376;19.630;2023-02-04T01:01:55;40.03;;;27.00;;
59038;SDS011;44824;43.376;19.630;2023-02-04T01:04:21;45.65;;;29.45;;
59038;SDS011;44824;43.376;19.630;2023-02-04T01:06:47;40.33;;;26.33;;
59038;SDS011;44824;43.376;19.630;2023-02-04T01:09:13;43.88;;;26.75;;
59038;SDS011;44824;43.376;19.630;2023-02-04T01:11:39;42.75;;;30.02;;
59038;SDS011;44824;43.376;19.630;2023-02-04T01:14:05;37.40;;;25.02;;
59038;SDS011;44824;43.376;19.630;2023-02-04T01:16:31;38.30;;;24.80;;
59038;SDS011;44824;43.376;19.630;2023-02-04T01:21:45;48.47;;;29.75;;
59038;SDS011;44824;43.376;19.630;2023-02-04T01:24:11;35.88;;;23.92;;
59038;SDS011;44824;43.376;19.630;2023-02-04T01:26:37;41.13;;;26.67;;
59038;SDS011;44824;43.376;19.630;2023-02-04T01:29:03;49.90;;;35.20;;
59038;SDS011;44824;43.376;19.630;2023-02-04T01:31:29;41.72;;;28.98;;
59038;SDS011;44824;43.376;19.630;2023-02-04T01:36:32;40.05;;;26.00;;
59038;SDS011;44824;43.376;19.630;2023-02-04T01:38:58;43.72;;;27.95;;
59038;SDS011;44824;43.376;19.630;2023-02-04T01:41:25;36.85;;;24.77;;
59038;SDS011;44824;43.376;19.630;2023-02-04T01:43:51;42.05;;;24.98;;
59038;SDS011;44824;43.376;19.630;2023-02-04T01:46:17;36.17;;;24.25;;
59038;SDS011;44824;43.376;19.630;2023-02-04T01:48:59;36.40;;;23.73;;
59038;SDS011;44824;43.376;19.630;2023-02-04T01:51:26;40.50;;;27.65;;
59038;SDS011;44824;43.376;19.630;2023-02-04T01:53:54;38.25;;;25.60;;
59038;SDS011;44824;43.376;19.630;2023-02-04T01:56:24;45.95;;;28.73;;
59038;SDS011;44824;43.376;19.630;2023-02-04T01:58:51;55.33;;;33.95;;
59038;SDS011;44824;43.376;19.630;2023-02-04T02:10:06;55.33;;;36.85;;
59038;SDS011;44824;43.376;19.630;2023-02-04T02:12:33;57.28;;;37.03;;
59038;SDS011;44824;43.376;19.630;2023-02-04T02:14:59;56.13;;;37.40;;
59038;SDS011;44824;43.376;19.630;2023-02-04T02:17:25;48.25;;;33.83;;
59038;SDS011;44824;43.376;19.630;2023-02-04T02:20:05;49.35;;;34.42;;
59038;SDS011;44824;43.376;19.630;2023-02-04T02:22:32;49.42;;;33.10;;
59038;SDS011;44824;43.376;19.630;2023-02-04T02:25:00;40.45;;;28.38;;
59038;SDS011;44824;43.376;19.630;2023-02-04T02:27:26;36.03;;;25.35;;
59038;SDS011;44824;43.376;19.630;2023-02-04T02:29:52;47.85;;;31.45;;
59038;SDS011;44824;43.376;19.630;2023-02-04T02:32:18;36.47;;;24.80;;
59038;SDS011;44824;43.376;19.630;2023-02-04T02:37:57;38.47;;;27.23;;
59038;SDS011;44824;43.376;19.630;2023-02-04T02:40:23;37.13;;;27.00;;
59038;SDS011;44824;43.376;19.630;2023-02-04T02:42:50;32.42;;;23.13;;
59038;SDS011;44824;43.376;19.630;2023-02-04T02:45:23;33.38;;;23.83;;
59038;SDS011;44824;43.376;19.630;2023-02-04T02:47:50;33.95;;;23.98;;
59038;SDS011;44824;43.376;19.630;2023-02-04T02:50:21;35.70;;;23.05;;
59038;SDS011;44824;43.376;19.630;2023-02-04T02:52:48;32.33;;;22.30;;
59038;SDS011;44824;43.376;19.630;2023-02-04T02:55:16;38.72;;;28.63;;
59038;SDS011;44824;43.376;19.630;2023-02-04T02:57:45;36.15;;;26.73;;
59038;SDS011;44824;43.376;19.630;2023-02-04T03:00:16;43.67;;;26.98;;
59038;SDS011;44824;43.376;19.630;2023-02-04T03:02:42;35.80;;;25.35;;
59038;SDS011;44824;43.376;19.630;2023-02-04T03:05:09;33.23;;;23.97;;
59038;SDS011;44824;43.376;19.630;2023-02-04T03:07:36;29.20;;;21.08;;
59038;SDS011;44824;43.376;19.630;2023-02-04T03:10:02;36.42;;;25.35;;
59038;SDS011;44824;43.376;19.630;2023-02-04T03:12:29;35.17;;;22.58;;
59038;SDS011;44824;43.376;19.630;2023-02-04T03:14:55;35.17;;;22.98;;
59038;SDS011;44824;43.376;19.630;2023-02-04T03:17:21;37.05;;;25.63;;
59038;SDS011;44824;43.376;19.630;2023-02-04T03:23:06;32.17;;;23.88;;
59038;SDS011;44824;43.376;19.630;2023-02-04T03:25:32;37.20;;;25.92;;
59038;SDS011;44824;43.376;19.630;2023-02-04T03:27:58;40.17;;;28.48;;
59038;SDS011;44824;43.376;19.630;2023-02-04T03:30:25;52.10;;;37.05;;
59038;SDS011;44824;43.376;19.630;2023-02-04T03:32:51;62.92;;;43.95;;
59038;SDS011;44824;43.376;19.630;2023-02-04T03:35:35;60.80;;;42.92;;
59038;SDS011;44824;43.376;19.630;2023-02-04T03:38:02;56.85;;;41.42;;
59038;SDS011;44824;43.376;19.630;2023-02-04T03:40:28;55.67;;;42.38;;
59038;SDS011;44824;43.376;19.630;2023-02-04T03:42:54;53.70;;;39.22;;
59038;SDS011;44824;43.376;19.630;2023-02-04T03:45:20;55.17;;;39.22;;
59038;SDS011;44824;43.376;19.630;2023-02-04T03:47:46;45.45;;;34.75;;
59038;SDS011;44824;43.376;19.630;2023-02-04T03:53:12;46.05;;;33.33;;
59038;SDS011;44824;43.376;19.630;2023-02-04T03:55:38;45.65;;;32.83;;
59038;SDS011;44824;43.376;19.630;2023-02-04T03:58:04;39.90;;;28.13;;
59038;SDS011;44824;43.376;19.630;2023-02-04T04:00:30;39.08;;;28.83;;
59038;SDS011;44824;43.376;19.630;2023-02-04T04:02:56;40.03;;;28.65;;
59038;SDS011;44824;43.376;19.630;2023-02-04T04:08:26;34.97;;;26.38;;
59038;SDS011;44824;43.376;19.630;2023-02-04T04:10:52;37.58;;;27.25;;
59038;SDS011;44824;43.376;19.630;2023-02-04T04:13:18;42.75;;;30.90;;
59038;SDS011;44824;43.376;19.630;2023-02-04T04:15:44;45.15;;;31.88;;
59038;SDS011;44824;43.376;19.630;2023-02-04T04:18:10;45.25;;;34.78;;
59038;SDS011;44824;43.376;19.630;2023-02-04T04:20:36;48.38;;;34.33;;
59038;SDS011;44824;43.376;19.630;2023-02-04T04:23:02;47.88;;;34.72;;
59038;SDS011;44824;43.376;19.630;2023-02-04T04:25:28;51.65;;;36.33;;
59038;SDS011;44824;43.376;19.630;2023-02-04T04:27:54;60.63;;;41.20;;
59038;SDS011;44824;43.376;19.630;2023-02-04T04:30:20;54.13;;;40.17;;
59038;SDS011;44824;43.376;19.630;2023-02-04T04:32:46;55.78;;;41.80;;
59038;SDS011;44824;43.376;19.630;2023-02-04T04:35:15;56.50;;;40.95;;
59038;SDS011;44824;43.376;19.630;2023-02-04T04:37:41;51.50;;;38.95;;
59038;SDS011;44824;43.376;19.630;2023-02-04T04:40:09;49.17;;;35.72;;
59038;SDS011;44824;43.376;19.630;2023-02-04T04:42:36;44.65;;;33.97;;
59038;SDS011;44824;43.376;19.630;2023-02-04T04:45:02;44.22;;;31.88;;
59038;SDS011;44824;43.376;19.630;2023-02-04T04:47:28;41.60;;;30.92;;
59038;SDS011;44824;43.376;19.630;2023-02-04T04:50:09;40.53;;;29.35;;
59038;SDS011;44824;43.376;19.630;2023-02-04T04:52:36;39.65;;;29.00;;
59038;SDS011;44824;43.376;19.630;2023-02-04T04:55:02;41.10;;;29.10;;
59038;SDS011;44824;43.376;19.630;2023-02-04T04:57:29;37.80;;;27.90;;
59038;SDS011;44824;43.376;19.630;2023-02-04T04:59:55;38.97;;;29.42;;
59038;SDS011;44824;43.376;19.630;2023-02-04T05:02:22;39.22;;;29.33;;
59038;SDS011;44824;43.376;19.630;2023-02-04T05:08:04;41.35;;;28.73;;
59038;SDS011;44824;43.376;19.630;2023-02-04T05:10:31;39.53;;;28.73;;
59038;SDS011;44824;43.376;19.630;2023-02-04T05:12:57;37.80;;;28.40;;
59038;SDS011;44824;43.376;19.630;2023-02-04T05:15:23;40.42;;;29.63;;
59038;SDS011;44824;43.376;19.630;2023-02-04T05:17:49;43.95;;;30.80;;
59038;SDS011;44824;43.376;19.630;2023-02-04T05:20:33;40.28;;;29.80;;
59038;SDS011;44824;43.376;19.630;2023-02-04T05:22:59;55.67;;;37.15;;
59038;SDS011;44824;43.376;19.630;2023-02-04T05:25:26;40.25;;;30.02;;
59038;SDS011;44824;43.376;19.630;2023-02-04T05:27:52;41.47;;;30.08;;
59038;SDS011;44824;43.376;19.630;2023-02-04T05:30:18;41.97;;;30.52;;
59038;SDS011;44824;43.376;19.630;2023-02-04T05:32:45;41.55;;;31.15;;
59038;SDS011;44824;43.376;19.630;2023-02-04T05:38:17;43.92;;;31.63;;
59038;SDS011;44824;43.376;19.630;2023-02-04T05:40:43;55.17;;;34.58;;
59038;SDS011;44824;43.376;19.630;2023-02-04T05:43:09;52.03;;;34.85;;
59038;SDS011;44824;43.376;19.630;2023-02-04T05:45:36;53.97;;;36.83;;
59038;SDS011;44824;43.376;19.630;2023-02-04T05:48:02;56.20;;;38.13;;
59038;SDS011;44824;43.376;19.630;2023-02-04T05:53:22;47.53;;;34.15;;
59038;SDS011;44824;43.376;19.630;2023-02-04T05:55:48;46.72;;;34.33;;
59038;SDS011;44824;43.376;19.630;2023-02-04T05:58:14;43.20;;;31.38;;
59038;SDS011;44824;43.376;19.630;2023-02-04T06:00:40;43.53;;;31.30;;
59038;SDS011;44824;43.376;19.630;2023-02-04T06:03:06;42.70;;;30.98;;
59038;SDS011;44824;43.376;19.630;2023-02-04T06:08:17;44.17;;;30.83;;
59038;SDS011;44824;43.376;19.630;2023-02-04T06:10:43;46.67;;;31.88;;
59038;SDS011;44824;43.376;19.630;2023-02-04T06:13:09;47.97;;;33.55;;
59038;SDS011;44824;43.376;19.630;2023-02-04T06:15:35;44.42;;;30.77;;
59038;SDS011;44824;43.376;19.630;2023-02-04T06:18:01;48.42;;;34.55;;
59038;SDS011;44824;43.376;19.630;2023-02-04T06:23:22;50.85;;;32.75;;
59038;SDS011;44824;43.376;19.630;2023-02-04T06:25:48;48.47;;;33.85;;
59038;SDS011;44824;43.376;19.630;2023-02-04T06:28:14;49.17;;;34.95;;
59038;SDS011;44824;43.376;19.630;2023-02-04T06:30:40;50.00;;;34.22;;
59038;SDS011;44824;43.376;19.630;2023-02-04T06:38:37;52.35;;;35.03;;
59038;SDS011;44824;43.376;19.630;2023-02-04T06:41:03;48.20;;;33.80;;
59038;SDS011;44824;43.376;19.630;2023-02-04T06:43:29;49.15;;;34.95;;
59038;SDS011;44824;43.376;19.630;2023-02-04T06:45:55;47.33;;;33.58;;
59038;SDS011;44824;43.376;19.630;2023-02-04T06:48:21;50.35;;;35.53;;
59038;SDS011;44824;43.376;19.630;2023-02-04T06:50:56;53.35;;;37.28;;
59038;SDS011;44824;43.376;19.630;2023-02-04T06:53:22;54.65;;;37.05;;
59038;SDS011;44824;43.376;19.630;2023-02-04T06:55:48;60.63;;;39.30;;
59038;SDS011;44824;43.376;19.630;2023-02-04T06:58:14;55.03;;;38.80;;
59038;SDS011;44824;43.376;19.630;2023-02-04T07:00:40;115.25;;;81.32;;
59038;SDS011;44824;43.376;19.630;2023-02-04T07:03:06;113.13;;;81.47;;
59038;SDS011;44824;43.376;19.630;2023-02-04T07:05:32;148.05;;;105.75;;
59038;SDS011;44824;43.376;19.630;2023-02-04T07:08:26;83.40;;;61.63;;
59038;SDS011;44824;43.376;19.630;2023-02-04T07:10:52;45.72;;;32.40;;
59038;SDS011;44824;43.376;19.630;2023-02-04T07:13:18;43.92;;;32.80;;
59038;SDS011;44824;43.376;19.630;2023-02-04T07:15:44;49.80;;;35.00;;
59038;SDS011;44824;43.376;19.630;2023-02-04T07:18:10;49.53;;;35.63;;
59038;SDS011;44824;43.376;19.630;2023-02-04T07:20:36;46.70;;;33.25;;
59038;SDS011;44824;43.376;19.630;2023-02-04T07:25:56;55.72;;;34.67;;
59038;SDS011;44824;43.376;19.630;2023-02-04T07:28:23;59.35;;;41.22;;
59038;SDS011;44824;43.376;19.630;2023-02-04T07:30:49;75.43;;;51.80;;
59038;SDS011;44824;43.376;19.630;2023-02-04T07:33:15;60.60;;;41.60;;
59038;SDS011;44824;43.376;19.630;2023-02-04T07:35:41;57.00;;;38.97;;
59038;SDS011;44824;43.376;19.630;2023-02-04T07:38:08;59.97;;;42.47;;
59038;SDS011;44824;43.376;19.630;2023-02-04T07:40:34;59.42;;;41.33;;
59038;SDS011;44824;43.376;19.630;2023-02-04T07:43:00;53.88;;;38.33;;
59038;SDS011;44824;43.376;19.630;2023-02-04T07:45:26;69.28;;;47.70;;
59038;SDS011;44824;43.376;19.630;2023-02-04T07:47:52;75.50;;;51.83;;
59038;SDS011;44824;43.376;19.630;2023-02-04T07:50:18;75.75;;;54.50;;
59038;SDS011;44824;43.376;19.630;2023-02-04T07:52:54;76.97;;;54.40;;
59038;SDS011;44824;43.376;19.630;2023-02-04T07:55:20;79.03;;;54.45;;
59038;SDS011;44824;43.376;19.630;2023-02-04T07:57:46;88.50;;;60.28;;
59038;SDS011;44824;43.376;19.630;2023-02-04T08:00:12;104.88;;;73.68;;
59038;SDS011;44824;43.376;19.630;2023-02-04T08:05:06;114.28;;;75.47;;
59038;SDS011;44824;43.376;19.630;2023-02-04T08:10:35;114.65;;;77.70;;
59038;SDS011;44824;43.376;19.630;2023-02-04T08:13:01;114.90;;;79.55;;
59038;SDS011;44824;43.376;19.630;2023-02-04T08:15:27;116.82;;;78.90;;
59038;SDS011;44824;43.376;19.630;2023-02-04T08:17:53;113.72;;;81.82;;
59038;SDS011;44824;43.376;19.630;2023-02-04T08:20:19;113.75;;;79.28;;
59038;SDS011;44824;43.376;19.630;2023-02-04T08:25:43;113.18;;;80.13;;
59038;SDS011;44824;43.376;19.630;2023-02-04T08:28:09;102.60;;;70.77;;
59038;SDS011;44824;43.376;19.630;2023-02-04T08:30:35;96.60;;;68.13;;
59038;SDS011;44824;43.376;19.630;2023-02-04T08:33:01;94.22;;;64.75;;
59038;SDS011;44824;43.376;19.630;2023-02-04T08:35:28;97.80;;;68.50;;
59038;SDS011;44824;43.376;19.630;2023-02-04T08:37:55;100.85;;;69.32;;
59038;SDS011;44824;43.376;19.630;2023-02-04T08:40:22;97.10;;;67.13;;
59038;SDS011;44824;43.376;19.630;2023-02-04T08:42:48;76.75;;;52.42;;
59038;SDS011;44824;43.376;19.630;2023-02-04T08:45:17;89.25;;;59.70;;
59038;SDS011;44824;43.376;19.630;2023-02-04T08:47:45;80.18;;;54.25;;
59038;SDS011;44824;43.376;19.630;2023-02-04T08:50:12;84.32;;;55.95;;
59038;SDS011;44824;43.376;19.630;2023-02-04T08:55:23;55.83;;;39.45;;
59038;SDS011;44824;43.376;19.630;2023-02-04T08:57:49;52.75;;;38.72;;
59038;SDS011;44824;43.376;19.630;2023-02-04T09:00:15;66.88;;;48.13;;
59038;SDS011;44824;43.376;19.630;2023-02-04T09:02:42;78.22;;;55.80;;
59038;SDS011;44824;43.376;19.630;2023-02-04T09:05:08;79.97;;;55.35;;
59038;SDS011;44824;43.376;19.630;2023-02-04T09:07:34;74.20;;;51.47;;
59038;SDS011;44824;43.376;19.630;2023-02-04T09:10:01;87.10;;;59.90;;
59038;SDS011;44824;43.376;19.630;2023-02-04T09:12:27;94.20;;;61.65;;
59038;SDS011;44824;43.376;19.630;2023-02-04T09:14:53;92.28;;;67.30;;
59038;SDS011;44824;43.376;19.630;2023-02-04T09:17:19;91.05;;;63.33;;
59038;SDS011;44824;43.376;19.630;2023-02-04T09:19:45;100.05;;;69.47;;
59038;SDS011;44824;43.376;19.630;2023-02-04T09:22:11;99.07;;;65.85;;
59038;SDS011;44824;43.376;19.630;2023-02-04T09:24:39;91.68;;;60.05;;
59038;SDS011;44824;43.376;19.630;2023-02-04T09:27:05;77.95;;;53.53;;
59038;SDS011;44824;43.376;19.630;2023-02-04T09:29:31;88.20;;;58.03;;
59038;SDS011;44824;43.376;19.630;2023-02-04T09:34:24;86.43;;;57.65;;
59038;SDS011;44824;43.376;19.630;2023-02-04T09:36:56;96.68;;;65.00;;
59038;SDS011;44824;43.376;19.630;2023-02-04T09:39:22;95.05;;;64.18;;
59038;SDS011;44824;43.376;19.630;2023-02-04T09:41:48;86.63;;;60.35;;
59038;SDS011;44824;43.376;19.630;2023-02-04T09:44:18;113.05;;;73.75;;
59038;SDS011;44824;43.376;19.630;2023-02-04T09:46:49;69.88;;;50.42;;
59038;SDS011;44824;43.376;19.630;2023-02-04T09:49:15;76.25;;;53.92;;
59038;SDS011;44824;43.376;19.630;2023-02-04T09:51:57;74.72;;;54.05;;
59038;SDS011;44824;43.376;19.630;2023-02-04T09:54:23;81.95;;;56.35;;
59038;SDS011;44824;43.376;19.630;2023-02-04T09:56:50;86.40;;;61.67;;
59038;SDS011;44824;43.376;19.630;2023-02-04T09:59:17;97.78;;;69.18;;
59038;SDS011;44824;43.376;19.630;2023-02-04T10:02:09;102.65;;;71.35;;
59038;SDS011;44824;43.376;19.630;2023-02-04T10:04:30;107.43;;;81.30;;
59038;SDS011;44824;43.376;19.630;2023-02-04T10:06:56;98.07;;;71.95;;
59038;SDS011;44824;43.376;19.630;2023-02-04T10:09:22;83.63;;;58.83;;
59038;SDS011;44824;43.376;19.630;2023-02-04T10:11:49;88.18;;;64.32;;
59038;SDS011;44824;43.376;19.630;2023-02-04T10:14:15;84.93;;;60.30;;
59038;SDS011;44824;43.376;19.630;2023-02-04T10:16:43;70.82;;;51.85;;
59038;SDS011;44824;43.376;19.630;2023-02-04T10:19:13;63.17;;;46.10;;
59038;SDS011;44824;43.376;19.630;2023-02-04T10:21:40;49.45;;;37.78;;
59038;SDS011;44824;43.376;19.630;2023-02-04T10:24:09;80.03;;;56.33;;
59038;SDS011;44824;43.376;19.630;2023-02-04T10:26:37;72.95;;;51.35;;
59038;SDS011;44824;43.376;19.630;2023-02-04T10:29:04;51.67;;;38.83;;
59038;SDS011;44824;43.376;19.630;2023-02-04T10:34:09;40.17;;;27.40;;
59038;SDS011;44824;43.376;19.630;2023-02-04T10:36:36;58.78;;;45.40;;
59038;SDS011;44824;43.376;19.630;2023-02-04T10:39:04;53.05;;;39.72;;
59038;SDS011;44824;43.376;19.630;2023-02-04T10:41:30;31.50;;;21.95;;
59038;SDS011;44824;43.376;19.630;2023-02-04T10:44:04;32.20;;;24.85;;
59038;SDS011;44824;43.376;19.630;2023-02-04T10:46:30;33.65;;;25.23;;
59038;SDS011;44824;43.376;19.630;2023-02-04T10:48:57;25.67;;;18.58;;
59038;SDS011;44824;43.376;19.630;2023-02-04T10:56:54;28.67;;;21.23;;
59038;SDS011;44824;43.376;19.630;2023-02-04T10:59:22;33.20;;;21.83;;
59038;SDS011;44824;43.376;19.630;2023-02-04T11:01:50;27.95;;;20.13;;
59038;SDS011;44824;43.376;19.630;2023-02-04T11:04:16;34.47;;;24.90;;
59038;SDS011;44824;43.376;19.630;2023-02-04T11:06:42;39.83;;;29.50;;
59038;SDS011;44824;43.376;19.630;2023-02-04T11:15:35;43.08;;;32.40;;
59038;SDS011;44824;43.376;19.630;2023-02-04T11:18:04;40.92;;;28.30;;
59038;SDS011;44824;43.376;19.630;2023-02-04T11:20:31;15.75;;;10.45;;
59038;SDS011;44824;43.376;19.630;2023-02-04T11:23:14;13.82;;;8.60;;
59038;SDS011;44824;43.376;19.630;2023-02-04T11:25:40;12.50;;;7.07;;
59038;SDS011;44824;43.376;19.630;2023-02-04T11:28:23;14.27;;;8.93;;
59038;SDS011;44824;43.376;19.630;2023-02-04T11:30:59;12.70;;;8.20;;
59038;SDS011;44824;43.376;19.630;2023-02-04T11:33:32;11.60;;;6.25;;
59038;SDS011;44824;43.376;19.630;2023-02-04T11:36:02;11.38;;;6.55;;
59038;SDS011;44824;43.376;19.630;2023-02-04T11:38:29;10.55;;;6.80;;
59038;SDS011;44824;43.376;19.630;2023-02-04T11:40:56;9.02;;;4.38;;
59038;SDS011;44824;43.376;19.630;2023-02-04T11:43:22;6.00;;;2.60;;
59038;SDS011;44824;43.376;19.630;2023-02-04T11:45:48;5.47;;;2.05;;
59038;SDS011;44824;43.376;19.630;2023-02-04T11:48:25;7.65;;;3.78;;
59038;SDS011;44824;43.376;19.630;2023-02-04T11:50:55;5.77;;;2.50;;
59038;SDS011;44824;43.376;19.630;2023-02-04T11:53:32;6.38;;;2.50;;
59038;SDS011;44824;43.376;19.630;2023-02-04T11:56:18;6.05;;;1.52;;
59038;SDS011;44824;43.376;19.630;2023-02-04T11:58:45;6.32;;;2.65;;
59038;SDS011;44824;43.376;19.630;2023-02-04T12:01:18;9.25;;;4.75;;
59038;SDS011;44824;43.376;19.630;2023-02-04T12:06:19;7.32;;;3.60;;
59038;SDS011;44824;43.376;19.630;2023-02-04T12:08:46;7.20;;;3.47;;
59038;SDS011;44824;43.376;19.630;2023-02-04T12:11:22;23.38;;;10.40;;
59038;SDS011;44824;43.376;19.630;2023-02-04T12:13:55;13.48;;;7.20;;
59038;SDS011;44824;43.376;19.630;2023-02-04T12:16:21;6.43;;;3.15;;
59038;SDS011;44824;43.376;19.630;2023-02-04T12:18:48;6.20;;;2.60;;
59038;SDS011;44824;43.376;19.630;2023-02-04T12:21:17;7.15;;;3.90;;
59038;SDS011;44824;43.376;19.630;2023-02-04T12:26:31;5.35;;;1.80;;
59038;SDS011;44824;43.376;19.630;2023-02-04T12:28:57;6.80;;;2.67;;
59038;SDS011;44824;43.376;19.630;2023-02-04T12:31:26;6.63;;;2.00;;
59038;SDS011;44824;43.376;19.630;2023-02-04T12:33:53;5.47;;;2.20;;
59038;SDS011;44824;43.376;19.630;2023-02-04T12:36:19;7.15;;;3.25;;
59038;SDS011;44824;43.376;19.630;2023-02-04T12:41:35;6.40;;;2.67;;
59038;SDS011;44824;43.376;19.630;2023-02-04T12:44:01;4.40;;;1.55;;
59038;SDS011;44824;43.376;19.630;2023-02-04T12:46:28;8.20;;;3.47;;
59038;SDS011;44824;43.376;19.630;2023-02-04T12:48:54;6.45;;;2.33;;
59038;SDS011;44824;43.376;19.630;2023-02-04T12:51:20;7.15;;;2.83;;
59038;SDS011;44824;43.376;19.630;2023-02-04T12:53:47;7.22;;;4.35;;
59038;SDS011;44824;43.376;19.630;2023-02-04T12:56:13;6.30;;;2.40;;
59038;SDS011;44824;43.376;19.630;2023-02-04T12:58:45;6.53;;;2.88;;
59038;SDS011;44824;43.376;19.630;2023-02-04T13:01:11;7.47;;;2.20;;
59038;SDS011;44824;43.376;19.630;2023-02-04T13:03:37;9.05;;;2.38;;
59038;SDS011;44824;43.376;19.630;2023-02-04T13:06:03;6.30;;;2.72;;
59038;SDS011;44824;43.376;19.630;2023-02-04T13:08:29;9.32;;;4.53;;
59038;SDS011;44824;43.376;19.630;2023-02-04T13:10:55;8.27;;;4.35;;
59038;SDS011;44824;43.376;19.630;2023-02-04T13:13:21;5.10;;;1.80;;
59038;SDS011;44824;43.376;19.630;2023-02-04T13:15:47;6.95;;;2.92;;
59038;SDS011;44824;43.376;19.630;2023-02-04T13:18:14;8.93;;;4.10;;
59038;SDS011;44824;43.376;19.630;2023-02-04T13:20:40;10.00;;;5.35;;
59038;SDS011;44824;43.376;19.630;2023-02-04T13:23:06;5.97;;;2.47;;
59038;SDS011;44824;43.376;19.630;2023-02-04T13:25:32;10.77;;;5.55;;
59038;SDS011;44824;43.376;19.630;2023-02-04T13:27:58;8.73;;;3.72;;
59038;SDS011;44824;43.376;19.630;2023-02-04T13:30:24;8.85;;;5.90;;
59038;SDS011;44824;43.376;19.630;2023-02-04T13:32:50;6.85;;;3.40;;
59038;SDS011;44824;43.376;19.630;2023-02-04T13:35:17;6.38;;;2.70;;
59038;SDS011;44824;43.376;19.630;2023-02-04T13:37:43;7.80;;;2.50;;
59038;SDS011;44824;43.376;19.630;2023-02-04T13:40:09;7.65;;;3.85;;
59038;SDS011;44824;43.376;19.630;2023-02-04T13:42:35;7.75;;;4.10;;
59038;SDS011;44824;43.376;19.630;2023-02-04T13:45:02;5.70;;;2.10;;
59038;SDS011;44824;43.376;19.630;2023-02-04T13:47:29;8.70;;;3.00;;
59038;SDS011;44824;43.376;19.630;2023-02-04T13:49:55;9.32;;;3.97;;
59038;SDS011;44824;43.376;19.630;2023-02-04T13:52:21;8.63;;;3.97;;
59038;SDS011;44824;43.376;19.630;2023-02-04T13:54:47;9.32;;;4.03;;
59038;SDS011;44824;43.376;19.630;2023-02-04T13:57:13;8.70;;;4.45;;
59038;SDS011;44824;43.376;19.630;2023-02-04T13:59:41;7.85;;;3.65;;
59038;SDS011;44824;43.376;19.630;2023-02-04T14:02:07;7.95;;;3.50;;
59038;SDS011;44824;43.376;19.630;2023-02-04T14:04:33;8.15;;;4.03;;
59038;SDS011;44824;43.376;19.630;2023-02-04T14:06:59;7.55;;;3.30;;
59038;SDS011;44824;43.376;19.630;2023-02-04T14:09:25;6.43;;;2.90;;
59038;SDS011;44824;43.376;19.630;2023-02-04T14:11:51;7.72;;;3.75;;
59038;SDS011;44824;43.376;19.630;2023-02-04T14:14:17;6.97;;;3.55;;
59038;SDS011;44824;43.376;19.630;2023-02-04T14:16:44;7.00;;;3.55;;
59038;SDS011;44824;43.376;19.630;2023-02-04T14:19:10;7.28;;;2.70;;
59038;SDS011;44824;43.376;19.630;2023-02-04T14:21:36;6.60;;;3.00;;
59038;SDS011;44824;43.376;19.630;2023-02-04T14:24:02;9.55;;;6.53;;
59038;SDS011;44824;43.376;19.630;2023-02-04T14:26:29;9.93;;;5.55;;
59038;SDS011;44824;43.376;19.630;2023-02-04T14:28:55;7.97;;;3.75;;
59038;SDS011;44824;43.376;19.630;2023-02-04T14:31:21;5.63;;;2.20;;
59038;SDS011;44824;43.376;19.630;2023-02-04T14:33:47;6.13;;;2.53;;
59038;SDS011;44824;43.376;19.630;2023-02-04T14:36:14;8.13;;;4.05;;
59038;SDS011;44824;43.376;19.630;2023-02-04T14:38:40;9.52;;;4.38;;
59038;SDS011;44824;43.376;19.630;2023-02-04T14:41:18;7.05;;;3.30;;
59038;SDS011;44824;43.376;19.630;2023-02-04T14:43:48;9.35;;;4.43;;
59038;SDS011;44824;43.376;19.630;2023-02-04T14:46:14;11.48;;;5.35;;
59038;SDS011;44824;43.376;19.630;2023-02-04T14:48:40;10.05;;;4.85;;
59038;SDS011;44824;43.376;19.630;2023-02-04T14:51:06;11.60;;;4.90;;
59038;SDS011;44824;43.376;19.630;2023-02-04T14:53:32;7.50;;;4.13;;
59038;SDS011;44824;43.376;19.630;2023-02-04T14:55:58;10.00;;;5.10;;
59038;SDS011;44824;43.376;19.630;2023-02-04T14:58:24;7.20;;;3.35;;
59038;SDS011;44824;43.376;19.630;2023-02-04T15:00:50;8.45;;;3.15;;
59038;SDS011;44824;43.376;19.630;2023-02-04T15:03:16;7.00;;;3.35;;
59038;SDS011;44824;43.376;19.630;2023-02-04T15:05:42;13.38;;;5.50;;
59038;SDS011;44824;43.376;19.630;2023-02-04T15:08:08;7.45;;;3.90;;
59038;SDS011;44824;43.376;19.630;2023-02-04T15:10:35;9.15;;;4.32;;
59038;SDS011;44824;43.376;19.630;2023-02-04T15:13:01;12.23;;;7.18;;
59038;SDS011;44824;43.376;19.630;2023-02-04T15:15:27;11.35;;;6.00;;
59038;SDS011;44824;43.376;19.630;2023-02-04T15:18:02;9.02;;;4.80;;
59038;SDS011;44824;43.376;19.630;2023-02-04T15:20:30;12.10;;;5.55;;
59038;SDS011;44824;43.376;19.630;2023-02-04T15:23:02;12.68;;;6.47;;
59038;SDS011;44824;43.376;19.630;2023-02-04T15:25:28;9.65;;;4.30;;
59038;SDS011;44824;43.376;19.630;2023-02-04T15:27:58;7.90;;;4.20;;
59038;SDS011;44824;43.376;19.630;2023-02-04T15:30:24;9.10;;;5.70;;
59038;SDS011;44824;43.376;19.630;2023-02-04T15:32:50;7.00;;;3.70;;
59038;SDS011;44824;43.376;19.630;2023-02-04T15:35:16;7.68;;;4.05;;
59038;SDS011;44824;43.376;19.630;2023-02-04T15:37:46;10.90;;;5.63;;
59038;SDS011;44824;43.376;19.630;2023-02-04T15:40:12;9.50;;;5.47;;
59038;SDS011;44824;43.376;19.630;2023-02-04T15:42:38;11.20;;;5.90;;
59038;SDS011;44824;43.376;19.630;2023-02-04T15:45:08;14.93;;;9.68;;